ARP149 LIRN-LIEO
Flight info
| Callsign | ARP149 |
|---|---|
| Flight time | 0h 49m |
| Altitude | 33000 |
| Route | EDOPA DCT TAGEL DCT POKAV DCT ROXAN DCT ATNET |
| Aircraft | A20N/M-SDE3FGHIRWY/LB1 |
Departure
| Time | 2026-04-28 17:14 |
|---|---|
| Airport | Naples International Airport (LIRN) |
Arrival
| Time | 2026-04-28 18:04 |
|---|---|
| Airport | Olbia Costa Smeralda Airport (LIEO) |
| Time | Latitude | Longitude | Altitude | Speed | Heading |
|---|---|---|---|---|---|
| 2026-04-28 16:56 | 40.88241 | 14.28806 | 277 ft | 0 kts | 328° |
| 2026-04-28 17:09 | 40.88226 | 14.28818 | 279 ft | 3 kts | 327° |
| 2026-04-28 17:09 | 40.88209 | 14.28833 | 277 ft | 3 kts | 332° |
| 2026-04-28 17:09 | 40.88190 | 14.28839 | 283 ft | 3 kts | 15° |
| 2026-04-28 17:10 | 40.88175 | 14.28829 | 278 ft | 0 kts | 52° |
| 2026-04-28 17:10 | 40.88175 | 14.28830 | 278 ft | 1 kts | 52° |
| 2026-04-28 17:11 | 40.88237 | 14.28939 | 275 ft | 26 kts | 54° |
| 2026-04-28 17:11 | 40.88365 | 14.29157 | 269 ft | 33 kts | 51° |
| 2026-04-28 17:11 | 40.88486 | 14.29364 | 264 ft | 18 kts | 53° |
| 2026-04-28 17:11 | 40.88567 | 14.29509 | 260 ft | 17 kts | 53° |
| 2026-04-28 17:12 | 40.88584 | 14.29540 | 259 ft | 7 kts | 53° |
| 2026-04-28 17:12 | 40.88634 | 14.29627 | 257 ft | 17 kts | 53° |
| 2026-04-28 17:12 | 40.88721 | 14.29777 | 252 ft | 24 kts | 52° |
| 2026-04-28 17:12 | 40.88833 | 14.29970 | 246 ft | 24 kts | 53° |
| 2026-04-28 17:13 | 40.88923 | 14.30127 | 240 ft | 20 kts | 52° |
| 2026-04-28 17:13 | 40.88998 | 14.30161 | 238 ft | 0 kts | 340° |
| 2026-04-28 17:13 | 40.89003 | 14.30158 | 238 ft | 7 kts | 340° |
| 2026-04-28 17:13 | 40.89066 | 14.30064 | 238 ft | 14 kts | 262° |
| 2026-04-28 17:14 | 40.89043 | 14.30005 | 240 ft | 6 kts | 238° |
| 2026-04-28 17:14 | 40.88990 | 14.29892 | 244 ft | 59 kts | 238° |
| 2026-04-28 17:14 | 40.88561 | 14.28989 | 295 ft | 161 kts | 238° |
| 2026-04-28 17:14 | 40.87918 | 14.27637 | 1084 ft | 175 kts | 238° |
| 2026-04-28 17:15 | 40.87175 | 14.26349 | 2255 ft | 181 kts | 226° |
| 2026-04-28 17:15 | 40.86235 | 14.25170 | 3424 ft | 188 kts | 221° |
| 2026-04-28 17:15 | 40.85211 | 14.24045 | 4598 ft | 194 kts | 211° |
| 2026-04-28 17:15 | 40.83895 | 14.23554 | 5319 ft | 199 kts | 177° |
| 2026-04-28 17:16 | 40.82550 | 14.23968 | 5702 ft | 203 kts | 163° |
| 2026-04-28 17:16 | 40.81208 | 14.24540 | 5897 ft | 203 kts | 162° |
| 2026-04-28 17:16 | 40.79860 | 14.25117 | 5994 ft | 204 kts | 162° |
| 2026-04-28 17:16 | 40.78504 | 14.25678 | 5999 ft | 203 kts | 163° |
| 2026-04-28 17:17 | 40.77123 | 14.26160 | 6009 ft | 214 kts | 176° |
| 2026-04-28 17:17 | 40.75574 | 14.25679 | 6501 ft | 243 kts | 211° |
| 2026-04-28 17:17 | 40.74245 | 14.24197 | 7373 ft | 266 kts | 227° |
| 2026-04-28 17:17 | 40.73026 | 14.22260 | 8444 ft | 278 kts | 232° |
| 2026-04-28 17:18 | 40.71828 | 14.20237 | 9712 ft | 283 kts | 231° |
| 2026-04-28 17:18 | 40.70566 | 14.18182 | 10780 ft | 297 kts | 230° |
| 2026-04-28 17:18 | 40.69167 | 14.16012 | 11431 ft | 322 kts | 229° |
| 2026-04-28 17:18 | 40.67636 | 14.13716 | 12100 ft | 342 kts | 228° |
| 2026-04-28 17:19 | 40.66036 | 14.11356 | 13140 ft | 348 kts | 228° |
| 2026-04-28 17:19 | 40.64409 | 14.08966 | 14183 ft | 353 kts | 228° |
| 2026-04-28 17:19 | 40.62751 | 14.06534 | 15181 ft | 359 kts | 228° |
| 2026-04-28 17:19 | 40.61070 | 14.04066 | 16116 ft | 365 kts | 228° |
| 2026-04-28 17:20 | 40.59362 | 14.01559 | 16643 ft | 369 kts | 228° |
| 2026-04-28 17:20 | 40.58226 | 13.99891 | 16853 ft | 370 kts | 228° |
| 2026-04-28 17:20 | 40.55909 | 13.96492 | 17348 ft | 376 kts | 228° |
| 2026-04-28 17:20 | 40.54177 | 13.93954 | 18273 ft | 377 kts | 228° |
| 2026-04-28 17:21 | 40.52394 | 13.91343 | 19195 ft | 382 kts | 228° |
| 2026-04-28 17:21 | 40.50599 | 13.88718 | 20007 ft | 387 kts | 228° |
| 2026-04-28 17:21 | 40.48788 | 13.86069 | 20825 ft | 392 kts | 228° |
| 2026-04-28 17:22 | 40.45115 | 13.80706 | 22355 ft | 402 kts | 228° |
| 2026-04-28 17:22 | 40.43351 | 13.77840 | 23084 ft | 406 kts | 235° |
| 2026-04-28 17:22 | 40.41887 | 13.74647 | 23792 ft | 411 kts | 243° |
| 2026-04-28 17:23 | 40.39792 | 13.67572 | 25144 ft | 420 kts | 250° |
| 2026-04-28 17:23 | 40.38813 | 13.63947 | 25769 ft | 424 kts | 250° |
| 2026-04-28 17:23 | 40.37814 | 13.60280 | 26376 ft | 428 kts | 250° |
| 2026-04-28 17:23 | 40.36804 | 13.56591 | 26954 ft | 432 kts | 250° |
| 2026-04-28 17:24 | 40.35780 | 13.52863 | 27509 ft | 436 kts | 250° |
| 2026-04-28 17:24 | 40.34744 | 13.49093 | 28038 ft | 440 kts | 250° |
| 2026-04-28 17:24 | 40.33699 | 13.45301 | 28540 ft | 443 kts | 250° |
| 2026-04-28 17:24 | 40.32659 | 13.41529 | 29012 ft | 447 kts | 250° |
| 2026-04-28 17:25 | 40.31587 | 13.37638 | 29464 ft | 450 kts | 251° |
| 2026-04-28 17:25 | 40.30806 | 13.29490 | 30337 ft | 457 kts | 275° |
| 2026-04-28 17:25 | 40.31404 | 13.25449 | 30761 ft | 461 kts | 287° |
| 2026-04-28 17:26 | 40.32519 | 13.21495 | 31201 ft | 463 kts | 291° |
| 2026-04-28 17:26 | 40.33316 | 13.18844 | 31553 ft | 464 kts | 291° |
| 2026-04-28 17:26 | 40.34500 | 13.14908 | 31885 ft | 461 kts | 291° |
| 2026-04-28 17:26 | 40.35667 | 13.10991 | 31988 ft | 460 kts | 291° |
| 2026-04-28 17:27 | 40.36821 | 13.07076 | 32001 ft | 460 kts | 290° |
| 2026-04-28 17:27 | 40.39107 | 12.99236 | 32000 ft | 460 kts | 290° |
| 2026-04-28 17:28 | 40.41370 | 12.91436 | 32000 ft | 460 kts | 290° |
| 2026-04-28 17:28 | 40.44775 | 12.79652 | 32000 ft | 460 kts | 290° |
| 2026-04-28 17:29 | 40.47037 | 12.71795 | 32000 ft | 460 kts | 290° |
| 2026-04-28 17:30 | 40.50409 | 12.60041 | 32000 ft | 460 kts | 290° |
| 2026-04-28 17:30 | 40.53778 | 12.48244 | 32000 ft | 460 kts | 290° |
| 2026-04-28 17:31 | 40.57143 | 12.36407 | 32000 ft | 460 kts | 290° |
| 2026-04-28 17:32 | 40.60480 | 12.24612 | 32000 ft | 460 kts | 290° |
| 2026-04-28 17:32 | 40.62709 | 12.16705 | 32000 ft | 460 kts | 290° |
| 2026-04-28 17:33 | 40.64928 | 12.08806 | 32000 ft | 460 kts | 290° |
| 2026-04-28 17:33 | 40.66770 | 12.02229 | 32001 ft | 460 kts | 290° |
| 2026-04-28 17:34 | 40.69343 | 11.93017 | 32001 ft | 460 kts | 290° |
| 2026-04-28 17:34 | 40.71535 | 11.85146 | 31911 ft | 457 kts | 290° |
| 2026-04-28 17:35 | 40.72637 | 11.81176 | 31374 ft | 454 kts | 290° |
| 2026-04-28 17:35 | 40.73709 | 11.77311 | 30518 ft | 454 kts | 290° |
| 2026-04-28 17:35 | 40.74791 | 11.73402 | 29669 ft | 452 kts | 290° |
| 2026-04-28 17:35 | 40.75863 | 11.69525 | 28914 ft | 447 kts | 290° |
| 2026-04-28 17:36 | 40.76920 | 11.65694 | 28168 ft | 442 kts | 289° |
| 2026-04-28 17:36 | 40.77963 | 11.61912 | 27415 ft | 436 kts | 289° |
| 2026-04-28 17:36 | 40.78994 | 11.58163 | 26660 ft | 431 kts | 289° |
| 2026-04-28 17:36 | 40.80010 | 11.54467 | 25928 ft | 426 kts | 289° |
| 2026-04-28 17:37 | 40.81015 | 11.50804 | 25184 ft | 421 kts | 289° |
| 2026-04-28 17:37 | 40.82007 | 11.47182 | 24449 ft | 417 kts | 289° |
| 2026-04-28 17:37 | 40.82952 | 11.43598 | 23718 ft | 412 kts | 286° |
| 2026-04-28 17:37 | 40.83554 | 11.39925 | 22978 ft | 407 kts | 277° |
| 2026-04-28 17:38 | 40.83736 | 11.36215 | 22342 ft | 400 kts | 269° |
| 2026-04-28 17:38 | 40.83556 | 11.32610 | 22085 ft | 399 kts | 265° |
| 2026-04-28 17:38 | 40.83346 | 11.28933 | 22004 ft | 402 kts | 265° |
| 2026-04-28 17:38 | 40.83149 | 11.25251 | 22000 ft | 401 kts | 265° |
| 2026-04-28 17:39 | 40.82952 | 11.21571 | 22000 ft | 401 kts | 265° |
| 2026-04-28 17:39 | 40.82752 | 11.17882 | 22000 ft | 401 kts | 265° |
| 2026-04-28 17:39 | 40.82348 | 11.10533 | 22000 ft | 401 kts | 265° |
| 2026-04-28 17:40 | 40.82145 | 11.06888 | 22000 ft | 401 kts | 265° |
| 2026-04-28 17:40 | 40.81938 | 11.03198 | 22000 ft | 401 kts | 265° |
| 2026-04-28 17:40 | 40.81729 | 10.99513 | 22000 ft | 401 kts | 265° |
| 2026-04-28 17:40 | 40.81522 | 10.95873 | 22000 ft | 401 kts | 265° |
| 2026-04-28 17:41 | 40.81311 | 10.92186 | 22000 ft | 401 kts | 265° |
| 2026-04-28 17:41 | 40.81099 | 10.88519 | 21955 ft | 400 kts | 265° |
| 2026-04-28 17:41 | 40.80887 | 10.84852 | 21461 ft | 400 kts | 265° |
| 2026-04-28 17:41 | 40.80674 | 10.81191 | 20761 ft | 397 kts | 265° |
| 2026-04-28 17:42 | 40.80464 | 10.77599 | 20359 ft | 386 kts | 265° |
| 2026-04-28 17:42 | 40.80326 | 10.75264 | 20192 ft | 388 kts | 265° |
| 2026-04-28 17:42 | 40.80043 | 10.70474 | 19856 ft | 389 kts | 265° |
| 2026-04-28 17:42 | 40.79833 | 10.66930 | 19601 ft | 387 kts | 265° |
| 2026-04-28 17:43 | 40.79622 | 10.63405 | 19334 ft | 384 kts | 265° |
| 2026-04-28 17:43 | 40.79411 | 10.59899 | 18856 ft | 381 kts | 264° |
| 2026-04-28 17:43 | 40.79087 | 10.56500 | 18213 ft | 377 kts | 262° |
| 2026-04-28 17:43 | 40.78721 | 10.53083 | 17494 ft | 373 kts | 262° |
| 2026-04-28 17:44 | 40.78356 | 10.49717 | 16801 ft | 370 kts | 262° |
| 2026-04-28 17:44 | 40.77992 | 10.46367 | 16114 ft | 366 kts | 262° |
| 2026-04-28 17:44 | 40.77633 | 10.43053 | 15426 ft | 362 kts | 262° |
| 2026-04-28 17:44 | 40.77278 | 10.39774 | 14742 ft | 358 kts | 262° |
| 2026-04-28 17:45 | 40.76926 | 10.36532 | 14062 ft | 355 kts | 262° |
| 2026-04-28 17:45 | 40.76578 | 10.33325 | 13397 ft | 351 kts | 262° |
| 2026-04-28 17:45 | 40.76231 | 10.30139 | 12725 ft | 348 kts | 261° |
| 2026-04-28 17:45 | 40.75892 | 10.27028 | 12075 ft | 344 kts | 261° |
| 2026-04-28 17:46 | 40.75551 | 10.23910 | 11434 ft | 341 kts | 261° |
| 2026-04-28 17:46 | 40.75214 | 10.20842 | 11127 ft | 339 kts | 261° |
| 2026-04-28 17:46 | 40.74875 | 10.17752 | 11011 ft | 340 kts | 261° |
| 2026-04-28 17:46 | 40.74535 | 10.14674 | 11000 ft | 340 kts | 261° |
| 2026-04-28 17:47 | 40.74193 | 10.11576 | 11000 ft | 340 kts | 261° |
| 2026-04-28 17:47 | 40.73850 | 10.08486 | 11000 ft | 340 kts | 261° |
| 2026-04-28 17:47 | 40.73507 | 10.05396 | 11000 ft | 340 kts | 261° |
| 2026-04-28 17:47 | 40.73280 | 10.03351 | 11000 ft | 340 kts | 261° |
| 2026-04-28 17:48 | 40.72824 | 9.99265 | 11000 ft | 340 kts | 261° |
| 2026-04-28 17:48 | 40.72478 | 9.96176 | 11000 ft | 340 kts | 261° |
| 2026-04-28 17:48 | 40.72131 | 9.93087 | 11000 ft | 340 kts | 261° |
| 2026-04-28 17:48 | 40.71784 | 9.90001 | 11000 ft | 340 kts | 261° |
| 2026-04-28 17:49 | 40.71436 | 9.86912 | 11000 ft | 340 kts | 261° |
| 2026-04-28 17:49 | 40.71087 | 9.83826 | 11000 ft | 340 kts | 261° |
| 2026-04-28 17:49 | 40.70738 | 9.80745 | 10971 ft | 339 kts | 261° |
| 2026-04-28 17:49 | 40.70390 | 9.77687 | 10645 ft | 336 kts | 261° |
| 2026-04-28 17:50 | 40.70045 | 9.74651 | 10166 ft | 332 kts | 261° |
| 2026-04-28 17:50 | 40.69713 | 9.71739 | 9989 ft | 316 kts | 261° |
| 2026-04-28 17:50 | 40.69391 | 9.68922 | 9841 ft | 299 kts | 261° |
| 2026-04-28 17:50 | 40.69091 | 9.66305 | 9611 ft | 288 kts | 261° |
| 2026-04-28 17:51 | 40.68792 | 9.63709 | 9173 ft | 285 kts | 261° |
| 2026-04-28 17:51 | 40.68496 | 9.61139 | 8784 ft | 281 kts | 261° |
| 2026-04-28 17:51 | 40.68210 | 9.58654 | 8662 ft | 267 kts | 261° |
| 2026-04-28 17:51 | 40.67936 | 9.56279 | 8414 ft | 260 kts | 261° |
| 2026-04-28 17:52 | 40.67664 | 9.53939 | 8039 ft | 258 kts | 261° |
| 2026-04-28 17:52 | 40.67393 | 9.51607 | 7659 ft | 257 kts | 261° |
| 2026-04-28 17:52 | 40.66856 | 9.46978 | 6959 ft | 253 kts | 261° |
| 2026-04-28 17:53 | 40.66588 | 9.44688 | 6594 ft | 253 kts | 261° |
| 2026-04-28 17:53 | 40.66323 | 9.42415 | 6291 ft | 249 kts | 261° |
| 2026-04-28 17:53 | 40.66064 | 9.40198 | 6097 ft | 241 kts | 261° |
| 2026-04-28 17:53 | 40.65811 | 9.38042 | 6003 ft | 239 kts | 261° |
| 2026-04-28 17:54 | 40.65553 | 9.35852 | 5997 ft | 241 kts | 261° |
| 2026-04-28 17:54 | 40.65298 | 9.33678 | 6000 ft | 240 kts | 260° |
| 2026-04-28 17:54 | 40.64837 | 9.31576 | 6001 ft | 240 kts | 245° |
| 2026-04-28 17:54 | 40.63969 | 9.29710 | 5999 ft | 240 kts | 234° |
| 2026-04-28 17:55 | 40.63001 | 9.27921 | 6001 ft | 240 kts | 234° |
| 2026-04-28 17:55 | 40.62143 | 9.26048 | 5998 ft | 239 kts | 251° |
| 2026-04-28 17:55 | 40.62017 | 9.23878 | 6000 ft | 241 kts | 281° |
| 2026-04-28 17:55 | 40.62749 | 9.21938 | 6000 ft | 233 kts | 313° |
| 2026-04-28 17:56 | 40.64004 | 9.20606 | 6002 ft | 233 kts | 323° |
| 2026-04-28 17:56 | 40.65308 | 9.19351 | 6000 ft | 232 kts | 323° |
| 2026-04-28 17:56 | 40.66686 | 9.18258 | 5998 ft | 232 kts | 342° |
| 2026-04-28 17:56 | 40.68288 | 9.18163 | 6002 ft | 234 kts | 14° |
| 2026-04-28 17:57 | 40.69750 | 9.19085 | 6000 ft | 235 kts | 31° |
| 2026-04-28 17:57 | 40.71127 | 9.20236 | 6001 ft | 234 kts | 33° |
| 2026-04-28 17:57 | 40.72511 | 9.21416 | 6000 ft | 234 kts | 33° |
| 2026-04-28 17:57 | 40.73861 | 9.22553 | 5914 ft | 232 kts | 34° |
| 2026-04-28 17:58 | 40.75120 | 9.23942 | 5667 ft | 233 kts | 46° |
| 2026-04-28 17:58 | 40.76166 | 9.25615 | 5293 ft | 233 kts | 54° |
| 2026-04-28 17:58 | 40.77089 | 9.27360 | 4924 ft | 227 kts | 56° |
| 2026-04-28 17:58 | 40.77941 | 9.28987 | 4572 ft | 210 kts | 56° |
| 2026-04-28 17:59 | 40.78747 | 9.30525 | 4247 ft | 197 kts | 56° |
| 2026-04-28 17:59 | 40.79514 | 9.31987 | 3967 ft | 185 kts | 55° |
| 2026-04-28 17:59 | 40.80197 | 9.33289 | 3703 ft | 166 kts | 56° |
| 2026-04-28 17:59 | 40.80811 | 9.34460 | 3456 ft | 145 kts | 56° |
| 2026-04-28 18:00 | 40.81359 | 9.35506 | 3237 ft | 132 kts | 56° |
| 2026-04-28 18:00 | 40.81878 | 9.36497 | 3033 ft | 133 kts | 56° |
| 2026-04-28 18:00 | 40.82395 | 9.37485 | 2828 ft | 130 kts | 56° |
| 2026-04-28 18:00 | 40.82909 | 9.38467 | 2627 ft | 130 kts | 56° |
| 2026-04-28 18:01 | 40.83421 | 9.39445 | 2422 ft | 129 kts | 56° |
| 2026-04-28 18:01 | 40.83931 | 9.40419 | 2223 ft | 129 kts | 56° |
| 2026-04-28 18:01 | 40.84277 | 9.41080 | 2090 ft | 129 kts | 56° |
| 2026-04-28 18:01 | 40.84948 | 9.42364 | 1825 ft | 128 kts | 56° |
| 2026-04-28 18:02 | 40.85292 | 9.43020 | 1692 ft | 128 kts | 56° |
| 2026-04-28 18:02 | 40.85791 | 9.43975 | 1483 ft | 127 kts | 56° |
| 2026-04-28 18:02 | 40.86295 | 9.44937 | 1298 ft | 127 kts | 56° |
| 2026-04-28 18:02 | 40.86798 | 9.45901 | 1099 ft | 127 kts | 56° |
| 2026-04-28 18:03 | 40.87301 | 9.46861 | 902 ft | 126 kts | 56° |
| 2026-04-28 18:03 | 40.87798 | 9.47813 | 699 ft | 126 kts | 56° |
| 2026-04-28 18:03 | 40.88290 | 9.48754 | 515 ft | 126 kts | 56° |
| 2026-04-28 18:03 | 40.88794 | 9.49719 | 316 ft | 126 kts | 56° |
| 2026-04-28 18:04 | 40.89290 | 9.50667 | 119 ft | 125 kts | 56° |
| 2026-04-28 18:04 | 40.89755 | 9.51562 | 27 ft | 82 kts | 56° |
| 2026-04-28 18:04 | 40.89930 | 9.51880 | 24 ft | 38 kts | 51° |
| 2026-04-28 18:04 | 40.90097 | 9.52034 | 24 ft | 1 kts | 11° |
| 2026-04-28 18:05 | 40.90098 | 9.52034 | 24 ft | 0 kts | 11° |
| 2026-04-28 18:05 | 40.90125 | 9.52040 | 25 ft | 10 kts | 4° |
| 2026-04-28 18:05 | 40.90170 | 9.51973 | 28 ft | 12 kts | 283° |
| 2026-04-28 18:06 | 40.90183 | 9.51867 | 34 ft | 12 kts | 280° |
| 2026-04-28 18:06 | 40.90223 | 9.51766 | 35 ft | 11 kts | 260° |
| 2026-04-28 18:06 | 40.90183 | 9.51691 | 35 ft | 13 kts | 236° |
| 2026-04-28 18:06 | 40.90139 | 9.51603 | 35 ft | 8 kts | 236° |
| 2026-04-28 18:07 | 40.90151 | 9.51554 | 33 ft | 8 kts | 319° |
| 2026-04-28 18:07 | 40.90176 | 9.51530 | 35 ft | 0 kts | 325° |